Time;durP1;ratioP1;P1;durP2;ratioP2;P2;SDS_P1;SDS_P2;PMS_P1;PMS_P2;Temp;Humidity;BMP_temperature;BMP_pressure;BME280_temperature;BME280_humidity;BME280_pressure;Samples;Min_cycle;Max_cycle;Signal;HPM_P1;HPM_P2
2023/07/14 00:00:47;;;;;;;12.60;7.20;;;;;;;;;;4401067;32;317576;-84
2023/07/14 00:03:18;;;;;;;8.27;5.55;;;;;;;;;;4391315;32;317790;-84
2023/07/14 00:05:46;;;;;;;12.70;7.47;;;;;;;;;;4402424;32;316562;-84
2023/07/14 00:08:19;;;;;;;11.38;6.10;;;;;;;;;;4389525;32;318124;-84
2023/07/14 00:10:46;;;;;;;15.25;6.45;;;;;;;;;;4401495;32;317740;-84
2023/07/14 00:13:16;;;;;;;9.63;6.37;;;;;;;;;;4388367;32;317748;-84
2023/07/14 00:15:44;;;;;;;9.52;5.90;;;;;;;;;;4400552;32;316969;-84
2023/07/14 00:18:20;;;;;;;14.05;6.22;;;;;;;;;;4375433;32;317021;-86
2023/07/14 00:20:48;;;;;;;14.43;6.22;;;;;;;;;;4400396;32;317774;-84
2023/07/14 00:23:17;;;;;;;14.32;5.57;;;;;;;;;;4374950;32;317715;-84
2023/07/14 00:25:46;;;;;;;10.05;5.82;;;;;;;;;;4398902;32;318220;-84
2023/07/14 00:28:19;;;;;;;18.10;5.72;;;;;;;;;;4391471;32;317800;-84
2023/07/14 00:30:48;;;;;;;12.73;6.75;;;;;;;;;;4402610;32;318116;-84
2023/07/14 00:33:17;;;;;;;9.88;6.07;;;;;;;;;;4392724;32;316558;-85
2023/07/14 00:35:47;;;;;;;13.13;6.15;;;;;;;;;;4402596;32;316601;-87
2023/07/14 00:38:15;;;;;;;8.60;5.65;;;;;;;;;;4378840;32;317697;-85
2023/07/14 00:40:45;;;;;;;10.07;6.20;;;;;;;;;;4402259;32;316554;-87
2023/07/14 00:43:18;;;;;;;11.38;5.90;;;;;;;;;;4391344;32;317804;-85
2023/07/14 00:45:48;;;;;;;12.02;6.95;;;;;;;;;;4404470;32;317639;-84
2023/07/14 00:48:19;;;;;;;13.35;6.10;;;;;;;;;;4392749;32;317803;-84
2023/07/14 00:50:52;;;;;;;13.27;7.05;;;;;;;;;;4403831;32;317705;-84
2023/07/14 00:53:22;;;;;;;12.80;6.37;;;;;;;;;;4393204;32;317708;-84
2023/07/14 00:55:53;;;;;;;9.63;5.97;;;;;;;;;;4403671;32;316518;-84
2023/07/14 00:58:25;;;;;;;16.12;7.57;;;;;;;;;;4391336;32;316687;-84
2023/07/14 01:01:04;;;;;;;10.25;5.78;;;;;;;;;;4402690;32;357196;-84
2023/07/14 01:03:39;;;;;;;10.77;6.68;;;;;;;;;;4390912;32;386837;-84
2023/07/14 01:06:08;;;;;;;8.23;5.95;;;;;;;;;;4393554;32;317729;-84
2023/07/14 01:08:39;;;;;;;8.88;6.80;;;;;;;;;;4402822;32;316781;-84
2023/07/14 01:11:06;;;;;;;13.50;6.62;;;;;;;;;;4392390;32;316834;-84
2023/07/14 01:13:36;;;;;;;15.77;6.00;;;;;;;;;;4402753;32;317982;-84
2023/07/14 01:16:04;;;;;;;13.57;6.28;;;;;;;;;;4391358;32;317740;-84
2023/07/14 01:18:32;;;;;;;17.98;7.15;;;;;;;;;;4403573;32;317363;-84
2023/07/14 01:21:01;;;;;;;11.35;6.12;;;;;;;;;;4402570;32;317792;-84
2023/07/14 01:23:45;;;;;;;13.27;6.57;;;;;;;;;;4388758;32;417313;-84
2023/07/14 01:26:20;;;;;;;15.55;6.15;;;;;;;;;;4389694;32;357752;-84
2023/07/14 01:28:49;;;;;;;18.85;6.87;;;;;;;;;;4401932;32;317742;-83
2023/07/14 01:31:21;;;;;;;9.82;6.55;;;;;;;;;;4390341;32;317986;-84
2023/07/14 01:33:52;;;;;;;15.80;6.78;;;;;;;;;;4401680;32;316659;-84
2023/07/14 01:36:21;;;;;;;10.35;6.30;;;;;;;;;;4392096;32;317678;-84
2023/07/14 01:38:49;;;;;;;13.75;6.25;;;;;;;;;;4401564;32;317448;-84
2023/07/14 01:41:17;;;;;;;14.40;6.03;;;;;;;;;;4389823;32;337302;-84
2023/07/14 01:43:45;;;;;;;11.15;6.65;;;;;;;;;;4401634;32;317817;-84
2023/07/14 01:46:17;;;;;;;11.23;5.57;;;;;;;;;;4391199;32;318062;-84
2023/07/14 01:49:03;;;;;;;8.48;6.32;;;;;;;;;;4403128;32;317827;-84
2023/07/14 01:51:35;;;;;;;11.43;6.25;;;;;;;;;;4388740;32;415935;-84
2023/07/14 01:54:10;;;;;;;17.55;7.18;;;;;;;;;;4391788;32;318089;-84
2023/07/14 01:56:39;;;;;;;10.00;6.72;;;;;;;;;;4400597;32;317788;-84
2023/07/14 01:59:11;;;;;;;11.02;7.20;;;;;;;;;;4391617;32;317991;-84
2023/07/14 02:01:44;;;;;;;14.43;7.53;;;;;;;;;;4402306;32;317911;-84
2023/07/14 02:04:20;;;;;;;9.75;6.85;;;;;;;;;;4390982;32;317845;-84
2023/07/14 02:06:48;;;;;;;9.95;5.90;;;;;;;;;;4402861;32;316758;-84
2023/07/14 02:09:18;;;;;;;12.27;6.82;;;;;;;;;;4390641;32;316685;-84
2023/07/14 02:11:50;;;;;;;16.00;7.20;;;;;;;;;;4402002;32;317713;-84
2023/07/14 02:14:19;;;;;;;10.93;6.75;;;;;;;;;;4391721;32;318044;-84
2023/07/14 02:16:49;;;;;;;17.08;6.87;;;;;;;;;;4402001;32;317863;-84
2023/07/14 02:19:20;;;;;;;10.50;5.72;;;;;;;;;;4389882;32;317986;-84
2023/07/14 02:21:48;;;;;;;11.32;7.80;;;;;;;;;;4400971;32;317803;-84
2023/07/14 02:24:20;;;;;;;26.62;7.45;;;;;;;;;;4390005;32;317942;-84
2023/07/14 02:26:50;;;;;;;14.75;7.55;;;;;;;;;;4401394;32;317702;-84
2023/07/14 02:29:18;;;;;;;16.77;7.90;;;;;;;;;;4390144;32;318017;-84
2023/07/14 02:31:52;;;;;;;10.98;7.05;;;;;;;;;;4401419;32;318179;-84
2023/07/14 02:34:20;;;;;;;16.37;8.27;;;;;;;;;;4392094;32;317630;-83
2023/07/14 02:36:58;;;;;;;11.65;6.78;;;;;;;;;;4402489;32;318012;-84
2023/07/14 02:39:26;;;;;;;10.07;7.10;;;;;;;;;;4390799;32;317936;-84
2023/07/14 02:41:56;;;;;;;11.60;7.68;;;;;;;;;;4399736;32;317901;-84
2023/07/14 02:44:30;;;;;;;6.87;5.80;;;;;;;;;;4390591;32;317853;-84
2023/07/14 02:47:05;;;;;;;12.45;7.28;;;;;;;;;;4400583;32;316875;-84
2023/07/14 02:49:32;;;;;;;9.40;7.50;;;;;;;;;;4388736;32;417339;-85
2023/07/14 02:52:00;;;;;;;16.67;7.15;;;;;;;;;;4400605;32;316704;-88
2023/07/14 02:54:27;;;;;;;12.52;7.32;;;;;;;;;;4388534;32;417320;-85
2023/07/14 02:56:55;;;;;;;11.40;6.97;;;;;;;;;;4400660;32;317657;-84
2023/07/14 02:59:23;;;;;;;9.80;6.90;;;;;;;;;;4391919;32;317830;-84
2023/07/14 03:01:50;;;;;;;11.80;6.25;;;;;;;;;;4401987;32;316549;-84
2023/07/14 03:04:21;;;;;;;14.07;7.03;;;;;;;;;;4390441;32;317721;-84
2023/07/14 03:06:48;;;;;;;14.60;7.95;;;;;;;;;;4402107;32;317831;-84
2023/07/14 03:09:16;;;;;;;15.13;6.65;;;;;;;;;;4388870;32;318123;-84
2023/07/14 03:11:42;;;;;;;13.77;6.55;;;;;;;;;;4401157;32;317642;-86
2023/07/14 03:14:10;;;;;;;18.48;8.02;;;;;;;;;;4389249;32;317700;-86
2023/07/14 03:16:39;;;;;;;18.60;7.75;;;;;;;;;;4399475;32;317793;-84
2023/07/14 03:19:07;;;;;;;10.60;6.82;;;;;;;;;;4389955;32;317752;-84
2023/07/14 03:21:36;;;;;;;11.75;7.75;;;;;;;;;;4401095;32;317865;-84
2023/07/14 03:24:05;;;;;;;13.15;7.32;;;;;;;;;;4378662;32;318088;-84
2023/07/14 03:26:32;;;;;;;14.18;6.90;;;;;;;;;;4401244;32;317683;-84
2023/07/14 03:29:00;;;;;;;12.10;8.25;;;;;;;;;;4401032;32;317942;-84
2023/07/14 03:31:27;;;;;;;12.95;8.35;;;;;;;;;;4388633;32;417094;-84
2023/07/14 03:33:54;;;;;;;15.90;6.85;;;;;;;;;;4401321;32;317962;-85
2023/07/14 03:36:23;;;;;;;17.02;7.40;;;;;;;;;;4389194;32;317603;-84
2023/07/14 03:39:24;;;;;;;13.10;6.43;;;;;;;;;;4400059;32;317738;-84
2023/07/14 03:41:51;;;;;;;13.73;7.12;;;;;;;;;;4387444;32;418060;-84
2023/07/14 03:44:20;;;;;;;12.47;7.60;;;;;;;;;;4388670;32;317946;-84
2023/07/14 03:46:47;;;;;;;19.52;7.55;;;;;;;;;;4401511;32;317784;-84
2023/07/14 03:49:15;;;;;;;11.02;6.87;;;;;;;;;;4391259;32;317691;-84
2023/07/14 03:51:42;;;;;;;17.17;7.72;;;;;;;;;;4400651;32;317668;-84
2023/07/14 03:54:12;;;;;;;16.27;7.30;;;;;;;;;;4387735;32;317031;-84
2023/07/14 03:56:40;;;;;;;12.57;7.57;;;;;;;;;;4400965;32;317978;-84
2023/07/14 03:59:08;;;;;;;11.52;7.78;;;;;;;;;;4388149;32;317803;-87
2023/07/14 04:01:35;;;;;;;14.45;7.35;;;;;;;;;;4401248;32;317635;-84
2023/07/14 04:04:03;;;;;;;21.65;8.27;;;;;;;;;;4389908;32;317561;-84
2023/07/14 04:06:30;;;;;;;14.15;7.40;;;;;;;;;;4400328;32;352646;-84
2023/07/14 04:09:00;;;;;;;21.15;8.18;;;;;;;;;;4400065;32;317674;-84
2023/07/14 04:11:29;;;;;;;12.65;8.68;;;;;;;;;;4386106;32;386496;-84
2023/07/14 04:13:57;;;;;;;26.55;8.90;;;;;;;;;;4399108;32;316705;-84
2023/07/14 04:16:24;;;;;;;13.20;8.23;;;;;;;;;;4390220;32;317860;-85
2023/07/14 04:18:52;;;;;;;22.83;8.73;;;;;;;;;;4400307;32;318159;-84
2023/07/14 04:21:24;;;;;;;18.58;8.48;;;;;;;;;;4391031;32;317954;-84
2023/07/14 04:23:51;;;;;;;12.40;8.75;;;;;;;;;;4400260;32;317633;-84
2023/07/14 04:26:19;;;;;;;13.13;8.77;;;;;;;;;;4389272;32;317816;-86
2023/07/14 04:28:48;;;;;;;15.20;8.27;;;;;;;;;;4400663;32;318012;-84
2023/07/14 04:31:16;;;;;;;15.15;8.73;;;;;;;;;;4390180;32;318188;-84
2023/07/14 04:33:45;;;;;;;13.70;8.60;;;;;;;;;;4398663;32;347584;-84
2023/07/14 04:36:13;;;;;;;21.02;8.75;;;;;;;;;;4390620;32;317690;-84
2023/07/14 04:38:43;;;;;;;14.73;7.90;;;;;;;;;;4400274;32;317689;-84
2023/07/14 04:41:14;;;;;;;18.33;9.00;;;;;;;;;;4389624;32;317955;-85
2023/07/14 04:43:42;;;;;;;19.30;8.18;;;;;;;;;;4401087;32;317711;-84
2023/07/14 04:46:12;;;;;;;11.23;8.15;;;;;;;;;;4390279;32;317743;-84
2023/07/14 04:48:40;;;;;;;15.93;7.65;;;;;;;;;;4400264;32;317565;-85
2023/07/14 04:51:07;;;;;;;18.80;8.02;;;;;;;;;;4389575;32;317807;-84
2023/07/14 04:53:35;;;;;;;23.98;8.43;;;;;;;;;;4398933;32;317897;-84
2023/07/14 04:56:02;;;;;;;25.90;9.13;;;;;;;;;;4389792;32;317812;-86
2023/07/14 04:58:30;;;;;;;13.93;8.52;;;;;;;;;;4399550;32;331621;-83
2023/07/14 05:00:57;;;;;;;19.52;8.23;;;;;;;;;;4399910;32;317801;-85
2023/07/14 05:03:28;;;;;;;14.43;8.23;;;;;;;;;;4389532;32;318087;-85
2023/07/14 05:05:55;;;;;;;14.82;9.35;;;;;;;;;;4400335;32;317956;-85
2023/07/14 05:08:23;;;;;;;14.05;8.90;;;;;;;;;;4388297;32;317639;-85
2023/07/14 05:10:50;;;;;;;13.15;8.25;;;;;;;;;;4389560;32;317720;-86
2023/07/14 05:13:18;;;;;;;16.98;8.45;;;;;;;;;;4390626;32;317844;-85
2023/07/14 05:15:45;;;;;;;18.27;9.23;;;;;;;;;;4402065;32;317633;-85
2023/07/14 05:18:13;;;;;;;15.95;8.73;;;;;;;;;;4391369;32;318079;-87
2023/07/14 05:20:43;;;;;;;17.55;8.38;;;;;;;;;;4403135;32;317958;-85
2023/07/14 05:23:11;;;;;;;18.75;7.68;;;;;;;;;;4391745;32;317745;-83
2023/07/14 05:25:39;;;;;;;14.45;8.93;;;;;;;;;;4402934;32;317742;-84
2023/07/14 05:28:06;;;;;;;12.90;9.25;;;;;;;;;;4391286;32;318000;-82
2023/07/14 05:30:34;;;;;;;18.83;9.15;;;;;;;;;;4401661;32;318270;-82
2023/07/14 05:33:02;;;;;;;17.55;8.43;;;;;;;;;;4401540;32;317646;-84
2023/07/14 05:35:30;;;;;;;16.70;8.35;;;;;;;;;;4390084;32;387689;-83
2023/07/14 05:37:59;;;;;;;12.82;8.65;;;;;;;;;;4403090;32;317689;-85
2023/07/14 05:40:26;;;;;;;14.90;9.10;;;;;;;;;;4390459;32;325300;-82
2023/07/14 05:42:54;;;;;;;17.50;7.95;;;;;;;;;;4400574;32;317911;-83
2023/07/14 05:45:21;;;;;;;14.27;9.10;;;;;;;;;;4392512;32;317750;-85
2023/07/14 05:47:49;;;;;;;15.73;7.95;;;;;;;;;;4401377;32;317912;-79
2023/07/14 05:50:17;;;;;;;15.18;8.55;;;;;;;;;;4391424;32;318006;-80
2023/07/14 05:52:46;;;;;;;19.87;8.98;;;;;;;;;;4402453;32;316598;-79
2023/07/14 05:55:15;;;;;;;15.93;9.10;;;;;;;;;;4390643;32;317843;-79
2023/07/14 05:57:44;;;;;;;17.37;8.98;;;;;;;;;;4401921;32;323502;-79
2023/07/14 06:00:16;;;;;;;17.83;9.10;;;;;;;;;;4369203;32;317923;-80
2023/07/14 06:02:45;;;;;;;17.40;9.75;;;;;;;;;;4402462;32;317765;-79
2023/07/14 06:05:13;;;;;;;18.23;9.35;;;;;;;;;;4391047;32;317882;-79
2023/07/14 06:07:41;;;;;;;15.48;8.70;;;;;;;;;;4402965;32;317933;-79
2023/07/14 06:10:10;;;;;;;15.20;8.00;;;;;;;;;;4389482;32;317850;-83
2023/07/14 06:12:39;;;;;;;20.17;8.25;;;;;;;;;;4401574;32;320307;-83
2023/07/14 06:15:08;;;;;;;16.23;8.52;;;;;;;;;;4391207;32;317773;-83
2023/07/14 06:17:36;;;;;;;15.48;8.07;;;;;;;;;;4401515;32;317813;-83
2023/07/14 06:20:04;;;;;;;20.77;8.02;;;;;;;;;;4391078;32;317998;-84
2023/07/14 06:22:31;;;;;;;14.55;8.02;;;;;;;;;;4402287;32;317696;-83
2023/07/14 06:24:59;;;;;;;23.75;9.82;;;;;;;;;;4402707;32;317891;-83
2023/07/14 06:27:26;;;;;;;24.73;8.73;;;;;;;;;;4391430;32;317892;-85
2023/07/14 06:29:55;;;;;;;15.93;8.55;;;;;;;;;;4402545;32;318035;-84
2023/07/14 06:32:23;;;;;;;23.77;7.50;;;;;;;;;;4391838;32;317744;-85
2023/07/14 06:34:51;;;;;;;18.05;8.45;;;;;;;;;;4388382;32;317860;-84
2023/07/14 06:37:18;;;;;;;14.77;7.37;;;;;;;;;;4389464;32;317772;-84
2023/07/14 06:39:45;;;;;;;18.70;8.70;;;;;;;;;;4401788;32;317953;-84
2023/07/14 06:42:13;;;;;;;11.60;7.97;;;;;;;;;;4390513;32;317799;-84
2023/07/14 06:44:40;;;;;;;14.13;8.55;;;;;;;;;;4400630;32;317905;-84
2023/07/14 06:47:09;;;;;;;15.68;7.85;;;;;;;;;;4391047;32;334440;-85
2023/07/14 06:49:37;;;;;;;17.90;7.93;;;;;;;;;;4400420;32;348477;-85
2023/07/14 06:52:06;;;;;;;19.48;8.23;;;;;;;;;;4388022;32;317751;-85
2023/07/14 06:54:33;;;;;;;19.00;8.68;;;;;;;;;;4401106;32;317799;-84
2023/07/14 06:57:01;;;;;;;14.57;8.13;;;;;;;;;;4401702;32;317704;-84
2023/07/14 06:59:28;;;;;;;13.18;7.60;;;;;;;;;;4386686;32;417224;-88
2023/07/14 07:01:55;;;;;;;18.23;9.85;;;;;;;;;;4401561;32;317933;-84
2023/07/14 07:04:26;;;;;;;13.90;8.60;;;;;;;;;;4388727;32;318034;-84
2023/07/14 07:06:53;;;;;;;12.60;8.23;;;;;;;;;;4399958;32;317671;-90
2023/07/14 07:09:21;;;;;;;17.02;8.85;;;;;;;;;;4389747;32;339075;-84
2023/07/14 07:11:48;;;;;;;16.12;7.37;;;;;;;;;;4401047;32;317624;-84
2023/07/14 07:14:16;;;;;;;18.98;9.23;;;;;;;;;;4389208;32;330852;-84
2023/07/14 07:16:43;;;;;;;17.92;9.73;;;;;;;;;;4400732;32;318425;-91
2023/07/14 07:19:11;;;;;;;19.93;9.47;;;;;;;;;;4388819;32;318596;-82
2023/07/14 07:21:41;;;;;;;12.00;8.93;;;;;;;;;;4400904;32;317992;-88
2023/07/14 07:24:09;;;;;;;16.30;9.23;;;;;;;;;;4389928;32;318193;-84
2023/07/14 07:26:36;;;;;;;16.05;9.27;;;;;;;;;;4400478;32;317797;-84
2023/07/14 07:29:04;;;;;;;14.30;9.43;;;;;;;;;;4386328;32;351147;-85
2023/07/14 07:31:31;;;;;;;20.90;10.20;;;;;;;;;;4400853;32;317362;-84
2023/07/14 07:33:59;;;;;;;15.13;9.75;;;;;;;;;;4401034;32;318581;-84
2023/07/14 07:36:27;;;;;;;13.30;9.57;;;;;;;;;;4390592;32;318108;-84
2023/07/14 07:38:56;;;;;;;17.42;9.60;;;;;;;;;;4400903;32;318178;-84
2023/07/14 07:41:25;;;;;;;13.62;9.68;;;;;;;;;;4391461;32;317660;-84
2023/07/14 07:43:54;;;;;;;18.98;9.82;;;;;;;;;;4401220;32;318092;-84
2023/07/14 07:46:22;;;;;;;12.85;8.88;;;;;;;;;;4373664;32;318004;-84
2023/07/14 07:48:49;;;;;;;25.52;9.95;;;;;;;;;;4395552;32;317824;-84
2023/07/14 07:51:18;;;;;;;19.92;9.70;;;;;;;;;;4389853;32;317624;-93
2023/07/14 07:53:47;;;;;;;19.87;9.82;;;;;;;;;;4400846;32;317707;-84
2023/07/14 07:56:15;;;;;;;15.32;9.25;;;;;;;;;;4390136;32;319420;-89
2023/07/14 07:58:43;;;;;;;13.45;9.23;;;;;;;;;;4399137;32;317992;-81
2023/07/14 08:01:17;;;;;;;18.50;9.43;;;;;;;;;;4399911;32;317955;-83
2023/07/14 08:03:45;;;;;;;13.77;9.43;;;;;;;;;;4387868;32;387557;-81
2023/07/14 08:06:13;;;;;;;10.27;8.15;;;;;;;;;;4388830;32;377751;-83
2023/07/14 08:08:41;;;;;;;17.85;8.95;;;;;;;;;;4400516;32;317676;-86
2023/07/14 08:11:10;;;;;;;14.55;9.07;;;;;;;;;;4399270;32;317839;-85
2023/07/14 08:13:39;;;;;;;13.25;9.27;;;;;;;;;;4388019;32;417209;-84
2023/07/14 08:16:07;;;;;;;15.43;8.77;;;;;;;;;;4399389;32;317832;-84
2023/07/14 08:18:34;;;;;;;12.00;8.52;;;;;;;;;;4390979;32;317969;-83
2023/07/14 08:21:02;;;;;;;19.33;10.25;;;;;;;;;;4400454;32;317772;-83
2023/07/14 08:23:30;;;;;;;11.52;8.75;;;;;;;;;;4390505;32;318695;-83
2023/07/14 08:25:59;;;;;;;14.38;8.73;;;;;;;;;;4400556;32;317764;-83
2023/07/14 08:28:27;;;;;;;14.38;9.75;;;;;;;;;;4389250;32;317802;-83
2023/07/14 08:31:00;;;;;;;13.25;8.60;;;;;;;;;;4399881;32;317816;-83
2023/07/14 08:33:27;;;;;;;15.88;9.30;;;;;;;;;;4390872;32;317922;-83
2023/07/14 08:36:00;;;;;;;12.75;9.43;;;;;;;;;;4398826;32;317821;-83
2023/07/14 08:38:28;;;;;;;15.77;9.48;;;;;;;;;;4389648;32;317923;-83
2023/07/14 08:41:03;;;;;;;13.27;9.50;;;;;;;;;;4399785;32;317665;-83
2023/07/14 08:43:49;;;;;;;15.00;8.75;;;;;;;;;;4391240;32;317661;-83
2023/07/14 08:46:26;;;;;;;15.43;9.48;;;;;;;;;;4392048;32;317582;-83
2023/07/14 08:49:00;;;;;;;19.95;10.73;;;;;;;;;;4403659;32;317590;-83
2023/07/14 08:51:34;;;;;;;12.95;9.52;;;;;;;;;;4391615;32;318808;-83
2023/07/14 08:54:11;;;;;;;18.52;9.13;;;;;;;;;;4403308;32;317788;-83
2023/07/14 08:56:40;;;;;;;17.87;9.13;;;;;;;;;;4390557;32;418300;-83
2023/07/14 08:59:14;;;;;;;20.62;9.90;;;;;;;;;;4402633;32;318005;-83
2023/07/14 09:01:50;;;;;;;16.15;8.82;;;;;;;;;;4389407;32;417262;-83
2023/07/14 09:04:22;;;;;;;17.30;9.70;;;;;;;;;;4392412;32;317654;-83
2023/07/14 09:06:49;;;;;;;20.42;9.57;;;;;;;;;;4403413;32;317984;-83
2023/07/14 09:09:21;;;;;;;12.00;9.15;;;;;;;;;;4388006;32;318013;-83
2023/07/14 09:12:09;;;;;;;17.27;10.23;;;;;;;;;;4402289;32;318104;-83
2023/07/14 09:14:51;;;;;;;10.48;8.95;;;;;;;;;;4392325;32;318926;-83
2023/07/14 09:17:27;;;;;;;16.73;9.35;;;;;;;;;;4390332;32;317810;-83
2023/07/14 09:20:36;;;;;;;13.82;9.38;;;;;;;;;;4402376;32;317828;-83
2023/07/14 09:23:24;;;;;;;17.30;10.25;;;;;;;;;;4369150;32;418128;-82
2023/07/14 09:25:57;;;;;;;19.17;9.95;;;;;;;;;;4390802;32;389050;-93
2023/07/14 09:28:33;;;;;;;15.27;10.63;;;;;;;;;;4391831;32;317580;-83
2023/07/14 09:31:05;;;;;;;19.20;10.20;;;;;;;;;;4401410;32;319105;-83
2023/07/14 09:33:47;;;;;;;19.80;10.27;;;;;;;;;;4392084;32;318898;-93
2023/07/14 09:36:15;;;;;;;19.70;10.13;;;;;;;;;;4390653;32;319135;-83
2023/07/14 09:38:48;;;;;;;23.05;10.05;;;;;;;;;;4402513;32;318715;-83
2023/07/14 09:41:17;;;;;;;20.50;9.77;;;;;;;;;;4391977;32;319090;-83
2023/07/14 09:43:45;;;;;;;16.58;10.38;;;;;;;;;;4400672;32;317757;-83
2023/07/14 09:46:17;;;;;;;15.80;10.45;;;;;;;;;;4386594;32;333329;-83
2023/07/14 09:48:50;;;;;;;12.75;9.05;;;;;;;;;;4401998;32;318915;-84
2023/07/14 09:51:23;;;;;;;18.17;8.70;;;;;;;;;;4390151;32;317988;-83
2023/07/14 09:54:01;;;;;;;15.98;10.07;;;;;;;;;;4402139;32;317757;-83
2023/07/14 09:56:32;;;;;;;14.43;9.55;;;;;;;;;;4390625;32;318703;-83
2023/07/14 09:59:02;;;;;;;19.55;10.02;;;;;;;;;;4402128;32;317734;-83
2023/07/14 10:01:31;;;;;;;17.92;11.43;;;;;;;;;;4391292;32;318837;-83
2023/07/14 10:04:11;;;;;;;17.98;10.48;;;;;;;;;;4402700;32;318890;-83
2023/07/14 10:06:38;;;;;;;20.27;10.23;;;;;;;;;;4389640;32;418146;-83
2023/07/14 10:09:11;;;;;;;15.18;10.95;;;;;;;;;;4400234;32;318881;-83
2023/07/14 10:11:43;;;;;;;19.90;10.15;;;;;;;;;;4388816;32;418212;-83
2023/07/14 10:14:26;;;;;;;21.12;10.93;;;;;;;;;;4396143;32;318877;-83
2023/07/14 10:16:56;;;;;;;17.48;10.75;;;;;;;;;;4388836;32;417407;-83
2023/07/14 10:19:36;;;;;;;26.55;11.82;;;;;;;;;;4391663;32;318747;-83
2023/07/14 10:22:06;;;;;;;22.10;12.23;;;;;;;;;;4400889;32;318722;-93
2023/07/14 10:24:35;;;;;;;15.13;12.32;;;;;;;;;;4389376;32;318842;-91
2023/07/14 10:27:13;;;;;;;14.52;10.50;;;;;;;;;;4401170;32;318848;-83
2023/07/14 10:29:47;;;;;;;18.25;11.38;;;;;;;;;;4388949;32;421368;-83
2023/07/14 10:32:24;;;;;;;23.75;11.40;;;;;;;;;;4387238;32;318753;-83
2023/07/14 10:34:58;;;;;;;20.95;12.05;;;;;;;;;;4400852;32;318815;-83
2023/07/14 10:37:27;;;;;;;22.55;12.57;;;;;;;;;;4390878;32;318948;-82
2023/07/14 10:40:00;;;;;;;19.50;11.90;;;;;;;;;;4400540;32;328156;-82
2023/07/14 10:42:31;;;;;;;19.70;12.05;;;;;;;;;;4391448;32;318922;-83
2023/07/14 10:45:00;;;;;;;20.62;13.05;;;;;;;;;;4400455;32;319255;-82
2023/07/14 10:47:33;;;;;;;21.00;13.15;;;;;;;;;;4390229;32;319038;-82
2023/07/14 10:50:13;;;;;;;22.77;12.73;;;;;;;;;;4402223;32;318863;-82
2023/07/14 10:52:45;;;;;;;18.75;13.00;;;;;;;;;;4388378;32;418158;-82
2023/07/14 10:55:18;;;;;;;24.52;12.63;;;;;;;;;;4391470;32;319177;-84
2023/07/14 10:57:50;;;;;;;23.00;13.35;;;;;;;;;;4400441;32;319017;-82
2023/07/14 11:00:26;;;;;;;19.62;14.05;;;;;;;;;;4388999;32;319030;-84
2023/07/14 11:06:17;;;;;;;18.87;13.48;;;;;;;;;;4386798;32;391050;-82
2023/07/14 11:08:48;;;;;;;17.02;13.32;;;;;;;;;;4385746;32;419690;-82
2023/07/14 11:11:26;;;;;;;16.98;13.32;;;;;;;;;;4385880;32;318888;-83
2023/07/14 11:14:08;;;;;;;23.48;12.95;;;;;;;;;;4399826;32;319103;-83
2023/07/14 11:16:44;;;;;;;21.60;13.80;;;;;;;;;;4375592;32;319188;-82
2023/07/14 11:19:18;;;;;;;20.00;12.55;;;;;;;;;;4400034;32;318995;-83
2023/07/14 11:21:54;;;;;;;19.52;12.30;;;;;;;;;;4387984;32;419181;-83
2023/07/14 11:24:24;;;;;;;22.40;12.93;;;;;;;;;;4388652;32;319235;-82
2023/07/14 11:27:06;;;;;;;16.37;11.65;;;;;;;;;;4400902;32;318687;-83
2023/07/14 11:29:40;;;;;;;20.40;12.63;;;;;;;;;;4388446;32;318505;-83
2023/07/14 11:32:20;;;;;;;18.30;12.30;;;;;;;;;;4400216;32;319231;-82
2023/07/14 11:34:57;;;;;;;17.65;13.07;;;;;;;;;;4387463;32;419501;-83
2023/07/14 11:37:41;;;;;;;17.62;12.80;;;;;;;;;;4390871;32;318782;-83
2023/07/14 11:40:20;;;;;;;20.23;13.52;;;;;;;;;;4400977;32;319239;-83
2023/07/14 11:42:52;;;;;;;20.65;13.43;;;;;;;;;;4386751;32;419497;-83
2023/07/14 11:45:23;;;;;;;22.27;13.98;;;;;;;;;;4389336;32;340605;-84
2023/07/14 11:47:52;;;;;;;19.00;13.98;;;;;;;;;;4401397;32;318731;-83
2023/07/14 11:50:27;;;;;;;25.45;14.35;;;;;;;;;;4388643;32;318941;-83
2023/07/14 11:53:02;;;;;;;19.17;14.43;;;;;;;;;;4400141;32;318786;-83
2023/07/14 11:55:31;;;;;;;26.52;13.35;;;;;;;;;;4390262;32;318819;-84
2023/07/14 11:58:27;;;;;;;20.35;12.63;;;;;;;;;;4399813;32;319218;-82
2023/07/14 12:00:59;;;;;;;19.42;12.82;;;;;;;;;;4374961;32;390272;-82
2023/07/14 12:03:32;;;;;;;28.00;14.05;;;;;;;;;;4391047;32;318809;-82
2023/07/14 12:06:45;;;;;;;22.48;13.50;;;;;;;;;;4400096;32;318843;-82
2023/07/14 12:09:16;;;;;;;19.05;13.07;;;;;;;;;;4356055;32;418655;-83
2023/07/14 12:11:56;;;;;;;19.58;13.43;;;;;;;;;;4396738;32;318913;-82
2023/07/14 12:14:46;;;;;;;18.60;12.40;;;;;;;;;;4389260;32;318912;-82
2023/07/14 12:17:45;;;;;;;18.95;12.68;;;;;;;;;;4387315;32;319264;-82
2023/07/14 12:20:31;;;;;;;23.50;13.05;;;;;;;;;;4391320;32;319012;-83
2023/07/14 12:23:12;;;;;;;25.40;13.60;;;;;;;;;;4402180;32;319405;-82
2023/07/14 12:25:49;;;;;;;23.98;14.63;;;;;;;;;;4390683;32;389952;-82
2023/07/14 12:28:25;;;;;;;18.12;13.32;;;;;;;;;;4392746;32;318793;-82
2023/07/14 12:30:53;;;;;;;21.42;15.13;;;;;;;;;;4402949;32;318785;-82
2023/07/14 12:33:21;;;;;;;25.12;13.75;;;;;;;;;;4392760;32;319294;-82
2023/07/14 12:35:51;;;;;;;20.12;13.77;;;;;;;;;;4403815;32;318795;-82
2023/07/14 12:38:21;;;;;;;20.90;14.07;;;;;;;;;;4389195;32;402114;-83
2023/07/14 12:40:53;;;;;;;18.30;12.20;;;;;;;;;;4403199;32;319112;-83
2023/07/14 12:43:35;;;;;;;21.48;12.23;;;;;;;;;;4392412;32;318772;-82
2023/07/14 12:46:10;;;;;;;21.25;12.93;;;;;;;;;;4403331;32;318562;-85
2023/07/14 12:48:38;;;;;;;23.23;12.90;;;;;;;;;;4391986;32;318868;-82
2023/07/14 12:51:16;;;;;;;23.20;13.62;;;;;;;;;;4403757;32;318786;-83
2023/07/14 12:53:54;;;;;;;18.37;13.02;;;;;;;;;;4389509;32;418174;-83
2023/07/14 12:56:35;;;;;;;23.08;13.40;;;;;;;;;;4393760;32;318839;-83
2023/07/14 12:59:03;;;;;;;18.80;13.18;;;;;;;;;;4403731;32;318745;-84
2023/07/14 13:01:33;;;;;;;16.87;12.52;;;;;;;;;;4393414;32;319278;-84
2023/07/14 13:04:02;;;;;;;16.52;11.98;;;;;;;;;;4402917;32;318546;-84
2023/07/14 13:06:30;;;;;;;21.23;12.30;;;;;;;;;;4389738;32;319006;-82
2023/07/14 13:09:07;;;;;;;24.35;12.88;;;;;;;;;;4403037;32;322502;-83
2023/07/14 13:11:39;;;;;;;17.65;12.37;;;;;;;;;;4392860;32;318696;-83
2023/07/14 13:14:10;;;;;;;20.02;12.18;;;;;;;;;;4395685;32;319169;-83
2023/07/14 13:16:39;;;;;;;20.15;12.68;;;;;;;;;;4391227;32;318948;-81
2023/07/14 13:19:22;;;;;;;23.38;12.25;;;;;;;;;;4402234;32;318796;-80
2023/07/14 13:21:50;;;;;;;21.42;12.52;;;;;;;;;;4389739;32;418015;-80
2023/07/14 13:24:22;;;;;;;18.10;12.00;;;;;;;;;;4391920;32;319012;-80
2023/07/14 13:26:58;;;;;;;19.12;11.93;;;;;;;;;;4401555;32;318713;-82
2023/07/14 13:29:28;;;;;;;13.90;11.12;;;;;;;;;;4390072;32;319046;-82
2023/07/14 13:31:59;;;;;;;22.50;12.18;;;;;;;;;;4401899;32;318713;-82
2023/07/14 13:34:30;;;;;;;17.95;13.15;;;;;;;;;;4392625;32;319038;-81
2023/07/14 13:37:01;;;;;;;17.60;12.73;;;;;;;;;;4400786;32;318839;-80
2023/07/14 13:39:30;;;;;;;17.10;12.13;;;;;;;;;;4392053;32;318679;-82
2023/07/14 13:42:02;;;;;;;21.35;11.30;;;;;;;;;;4402290;32;318951;-82
2023/07/14 13:44:31;;;;;;;22.00;12.93;;;;;;;;;;4390793;32;318972;-83
2023/07/14 13:47:03;;;;;;;21.30;12.30;;;;;;;;;;4402703;32;318702;-85
2023/07/14 13:49:30;;;;;;;15.98;10.95;;;;;;;;;;4392180;32;318823;-87
2023/07/14 13:51:58;;;;;;;18.40;12.32;;;;;;;;;;4402832;32;318796;-81
2023/07/14 13:54:29;;;;;;;22.60;12.37;;;;;;;;;;4389138;32;352970;-81
2023/07/14 13:56:57;;;;;;;17.83;12.02;;;;;;;;;;4400162;32;318825;-81
2023/07/14 13:59:26;;;;;;;19.02;11.38;;;;;;;;;;4391775;32;318784;-82
2023/07/14 14:01:53;;;;;;;19.02;11.68;;;;;;;;;;4402591;32;318782;-88
2023/07/14 14:04:20;;;;;;;17.10;12.55;;;;;;;;;;4386531;32;350976;-86
2023/07/14 14:06:48;;;;;;;19.67;12.10;;;;;;;;;;4401709;32;318731;-83
2023/07/14 14:09:20;;;;;;;21.62;12.32;;;;;;;;;;4400576;32;318649;-82
2023/07/14 14:11:50;;;;;;;22.45;12.73;;;;;;;;;;4387210;32;418311;-84
2023/07/14 14:14:20;;;;;;;17.23;13.48;;;;;;;;;;4391439;32;319147;-83
2023/07/14 14:16:50;;;;;;;28.17;11.75;;;;;;;;;;4402263;32;318717;-86
2023/07/14 14:19:22;;;;;;;18.35;12.10;;;;;;;;;;4391180;32;318868;-83
2023/07/14 14:21:51;;;;;;;22.83;12.57;;;;;;;;;;4401562;32;318762;-91
2023/07/14 14:24:18;;;;;;;20.48;11.77;;;;;;;;;;4392063;32;319186;-90
2023/07/14 14:26:45;;;;;;;24.02;11.88;;;;;;;;;;4401447;32;318771;-90
2023/07/14 14:29:13;;;;;;;17.95;11.90;;;;;;;;;;4402221;32;318949;-81
2023/07/14 14:31:41;;;;;;;15.73;11.70;;;;;;;;;;4391113;32;341762;-86
2023/07/14 14:34:14;;;;;;;19.92;11.77;;;;;;;;;;4401716;32;318863;-87
2023/07/14 14:36:41;;;;;;;14.80;11.45;;;;;;;;;;4391376;32;319077;-87
2023/07/14 14:39:15;;;;;;;22.05;11.43;;;;;;;;;;4401408;32;318843;-87